createdAt,value
2023-10-24T00:00:47.734Z,26.03
2023-10-24T00:03:16.162Z,24.87
2023-10-24T00:05:45.016Z,24.60
2023-10-24T00:08:13.054Z,30.20
2023-10-24T00:10:41.897Z,24.77
2023-10-24T00:13:10.370Z,23.67
2023-10-24T00:15:38.934Z,21.93
2023-10-24T00:18:07.589Z,29.50
2023-10-24T00:20:36.407Z,24.27
2023-10-24T00:23:04.790Z,20.77
2023-10-24T00:25:33.798Z,21.00
2023-10-24T00:28:02.439Z,22.73
2023-10-24T00:30:30.437Z,21.87
2023-10-24T00:32:58.754Z,55.30
2023-10-24T00:35:26.881Z,24.60
2023-10-24T00:37:55.599Z,23.70
2023-10-24T00:40:24.229Z,20.43
2023-10-24T00:42:53.770Z,24.67
2023-10-24T00:47:49.117Z,21.97
2023-10-24T00:50:17.239Z,18.40
2023-10-24T00:52:46.674Z,19.70
2023-10-24T00:55:15.882Z,30.60
2023-10-24T00:57:44.317Z,29.57
2023-10-24T01:00:13.108Z,26.23
2023-10-24T01:02:42.442Z,29.37
2023-10-24T01:07:38.234Z,23.70
2023-10-24T01:10:07.611Z,23.47
2023-10-24T01:12:35.740Z,25.83
2023-10-24T01:15:06.090Z,20.33
2023-10-24T01:17:34.188Z,25.30
2023-10-24T01:20:03.479Z,26.60
2023-10-24T01:22:32.185Z,21.03
2023-10-24T01:25:00.356Z,17.20
2023-10-24T01:27:28.494Z,16.57
2023-10-24T01:29:56.978Z,17.50
2023-10-24T01:32:27.047Z,18.03
2023-10-24T01:34:55.821Z,18.80
2023-10-24T01:37:24.608Z,24.13
2023-10-24T01:39:53.149Z,23.03
2023-10-24T01:42:21.848Z,20.73
2023-10-24T01:44:50.004Z,20.73
2023-10-24T01:47:18.827Z,19.57
2023-10-24T01:49:47.397Z,19.70
2023-10-24T01:52:16.179Z,18.67
2023-10-24T01:54:47.024Z,17.27
2023-10-24T01:57:16.465Z,21.43
2023-10-24T01:59:45.419Z,20.13
2023-10-24T02:02:13.583Z,17.90
2023-10-24T02:04:42.689Z,21.40
2023-10-24T02:09:38.757Z,13.93
2023-10-24T02:12:07.876Z,16.40
2023-10-24T02:14:35.836Z,23.13
2023-10-24T02:17:04.469Z,20.20
2023-10-24T02:19:32.929Z,20.83
2023-10-24T02:22:01.988Z,18.90
2023-10-24T02:24:30.492Z,24.77
2023-10-24T02:26:59.324Z,18.77
2023-10-24T02:29:28.005Z,16.07
2023-10-24T02:31:56.528Z,16.53
2023-10-24T02:34:25.173Z,20.53
2023-10-24T02:36:53.833Z,17.40
2023-10-24T02:39:22.446Z,14.40
2023-10-24T02:41:51.226Z,17.13
2023-10-24T02:44:21.550Z,18.10
2023-10-24T02:46:50.216Z,16.60
2023-10-24T02:49:19.392Z,18.10
2023-10-24T02:51:47.998Z,15.57
2023-10-24T02:54:16.697Z,14.20
2023-10-24T02:56:45.283Z,15.53
2023-10-24T02:59:14.165Z,20.70
2023-10-24T03:01:43.013Z,17.07
2023-10-24T03:04:11.065Z,19.13
2023-10-24T03:06:39.926Z,16.73
2023-10-24T03:09:07.902Z,21.67
2023-10-24T03:11:36.187Z,17.00
2023-10-24T03:14:04.869Z,14.77
2023-10-24T03:16:33.918Z,17.03
2023-10-24T03:19:02.515Z,19.53
2023-10-24T03:21:31.255Z,18.50
2023-10-24T03:23:59.708Z,20.30
2023-10-24T03:26:27.766Z,12.47
2023-10-24T03:28:56.569Z,19.57
2023-10-24T03:31:24.803Z,10.90
2023-10-24T03:33:53.431Z,17.07
2023-10-24T03:36:21.402Z,16.00
2023-10-24T03:38:49.982Z,16.10
2023-10-24T03:41:19.078Z,17.20
2023-10-24T03:43:50.486Z,14.63
2023-10-24T03:46:18.986Z,13.53
2023-10-24T03:48:47.463Z,14.07
2023-10-24T03:51:15.848Z,20.57
2023-10-24T03:53:44.666Z,17.13
2023-10-24T03:56:13.463Z,15.87
2023-10-24T03:58:41.466Z,11.23
2023-10-24T04:01:10.510Z,20.97
2023-10-24T04:03:39.202Z,13.50
2023-10-24T04:06:13.132Z,21.77
2023-10-24T04:08:41.943Z,17.47
2023-10-24T04:11:17.447Z,16.60
2023-10-24T04:16:13.485Z,21.82
2023-10-24T04:18:43.207Z,18.27
2023-10-24T04:21:12.006Z,17.60
2023-10-24T04:23:40.695Z,17.00
2023-10-24T04:26:09.283Z,15.20
2023-10-24T04:28:38.469Z,14.57
2023-10-24T04:31:07.329Z,18.13
2023-10-24T04:33:36.156Z,15.30
2023-10-24T04:36:05.440Z,19.60
2023-10-24T04:38:33.657Z,15.07
2023-10-24T04:41:01.776Z,16.87
2023-10-24T04:43:30.681Z,17.70
2023-10-24T04:45:59.338Z,18.10
2023-10-24T04:48:28.050Z,16.03
2023-10-24T04:50:56.656Z,13.70
2023-10-24T04:53:25.265Z,24.20
2023-10-24T04:55:53.762Z,19.13
2023-10-24T04:58:22.328Z,17.53
2023-10-24T05:00:51.025Z,16.93
2023-10-24T05:03:19.293Z,18.63
2023-10-24T05:05:48.147Z,17.00
2023-10-24T05:08:16.591Z,15.33
2023-10-24T05:10:45.066Z,19.40
2023-10-24T05:13:13.648Z,15.33
2023-10-24T05:15:42.441Z,16.00
2023-10-24T05:18:11.959Z,15.10
2023-10-24T05:20:40.369Z,13.87
2023-10-24T05:23:09.576Z,12.10
2023-10-24T05:25:38.500Z,15.37
2023-10-24T05:28:06.882Z,20.97
2023-10-24T05:30:35.702Z,16.27
2023-10-24T05:33:05.745Z,18.83
2023-10-24T05:35:34.489Z,15.23
2023-10-24T05:38:03.094Z,17.50
2023-10-24T05:40:32.399Z,16.60
2023-10-24T05:45:28.148Z,22.85
2023-10-24T05:47:56.851Z,22.20
2023-10-24T05:50:25.732Z,17.10
2023-10-24T05:52:54.623Z,19.20
2023-10-24T05:55:23.528Z,24.93
2023-10-24T05:57:52.284Z,22.37
2023-10-24T06:00:20.732Z,21.13
2023-10-24T06:02:49.276Z,22.73
2023-10-24T06:05:17.901Z,27.00
2023-10-24T06:07:46.764Z,30.23
2023-10-24T06:10:14.815Z,33.97
2023-10-24T06:12:43.357Z,33.00
2023-10-24T06:15:15.358Z,21.50
2023-10-24T06:17:43.886Z,26.33
2023-10-24T06:20:13.014Z,16.87
2023-10-24T06:22:41.826Z,21.73
2023-10-24T06:25:30.757Z,19.77
2023-10-24T06:27:59.232Z,21.30
2023-10-24T06:30:27.784Z,26.03
2023-10-24T06:32:56.639Z,17.60
2023-10-24T06:35:24.767Z,19.57
2023-10-24T06:37:53.522Z,24.43
2023-10-24T06:40:22.409Z,17.43
2023-10-24T06:42:52.815Z,17.00
2023-10-24T06:45:21.253Z,18.13
2023-10-24T06:47:50.007Z,19.33
2023-10-24T06:50:18.877Z,26.57
2023-10-24T06:52:47.409Z,18.57
2023-10-24T06:55:16.031Z,22.83
2023-10-24T06:57:44.714Z,18.27
2023-10-24T07:00:13.686Z,21.10
2023-10-24T07:02:42.115Z,23.50
2023-10-24T07:05:10.798Z,19.33
2023-10-24T07:07:40.513Z,23.97
2023-10-24T07:10:09.292Z,15.50
2023-10-24T07:12:37.736Z,18.93
2023-10-24T07:15:06.649Z,21.87
2023-10-24T07:17:35.578Z,17.77
2023-10-24T07:20:04.374Z,20.50
2023-10-24T07:22:33.317Z,20.37
2023-10-24T07:25:01.680Z,18.63
2023-10-24T07:27:30.282Z,20.77
2023-10-24T07:29:58.256Z,20.40
2023-10-24T07:32:27.010Z,17.57
2023-10-24T07:34:57.502Z,17.27
2023-10-24T07:37:26.130Z,17.47
2023-10-24T07:39:55.636Z,22.23
2023-10-24T07:42:24.239Z,26.13
2023-10-24T07:44:54.342Z,18.77
2023-10-24T07:47:22.883Z,21.67
2023-10-24T07:49:52.915Z,22.07
2023-10-24T07:52:21.255Z,25.83
2023-10-24T07:54:49.932Z,23.37
2023-10-24T07:57:18.492Z,21.43
2023-10-24T07:59:46.986Z,22.77
2023-10-24T08:02:15.709Z,18.87
2023-10-24T08:04:44.207Z,20.00
2023-10-24T08:07:12.719Z,22.03
2023-10-24T08:09:41.279Z,17.20
2023-10-24T08:12:10.115Z,17.13
2023-10-24T08:14:38.599Z,16.87
2023-10-24T08:17:07.625Z,21.00
2023-10-24T08:19:36.268Z,29.83
2023-10-24T08:22:05.322Z,21.10
2023-10-24T08:29:30.099Z,22.17
2023-10-24T08:32:01.008Z,18.77
2023-10-24T08:34:28.823Z,21.20
2023-10-24T08:36:57.080Z,24.57
2023-10-24T08:39:26.080Z,21.17
2023-10-24T08:44:24.440Z,26.73
2023-10-24T08:46:54.278Z,24.60
2023-10-24T08:49:22.756Z,23.27
2023-10-24T08:51:51.272Z,18.50
2023-10-24T08:54:19.640Z,22.03
2023-10-24T08:56:48.029Z,23.70
2023-10-24T08:59:20.849Z,26.17
2023-10-24T09:01:51.849Z,26.97
2023-10-24T09:04:20.256Z,19.53
2023-10-24T09:06:48.696Z,26.10
2023-10-24T09:09:17.177Z,26.20
2023-10-24T09:11:59.503Z,25.83
2023-10-24T09:14:41.006Z,18.63
2023-10-24T09:17:02.046Z,28.17
2023-10-24T09:19:30.843Z,27.83
2023-10-24T09:22:06.851Z,27.67
2023-10-24T09:24:29.532Z,28.13
2023-10-24T09:27:00.377Z,19.40
2023-10-24T09:29:29.569Z,24.80
2023-10-24T09:34:28.806Z,21.48
2023-10-24T09:36:58.619Z,21.20
2023-10-24T09:39:27.211Z,24.27
2023-10-24T09:41:55.326Z,21.60
2023-10-24T09:44:25.741Z,19.87
2023-10-24T09:46:56.239Z,26.07
2023-10-24T09:49:25.477Z,16.53
2023-10-24T09:51:54.146Z,16.13
2023-10-24T09:54:23.586Z,19.00
2023-10-24T09:56:52.184Z,18.30
2023-10-24T09:59:20.280Z,14.63
2023-10-24T10:02:01.517Z,17.07
2023-10-24T10:04:19.709Z,14.37
2023-10-24T10:09:19.560Z,15.80
2023-10-24T10:11:49.349Z,15.30
2023-10-24T10:14:27.988Z,17.97
2023-10-24T10:17:16.233Z,18.17
2023-10-24T10:19:55.462Z,14.83
2023-10-24T10:22:25.603Z,17.60
2023-10-24T10:25:12.152Z,16.73
2023-10-24T10:27:48.198Z,13.30
2023-10-24T10:30:25.921Z,12.60
2023-10-24T10:33:00.505Z,11.60
2023-10-24T10:35:22.737Z,14.90
2023-10-24T10:38:05.575Z,13.87
2023-10-24T10:40:35.071Z,16.13
2023-10-24T10:43:04.215Z,14.87
2023-10-24T10:45:33.681Z,14.03
2023-10-24T10:48:08.340Z,15.40
2023-10-24T10:50:39.554Z,12.70
2023-10-24T10:53:24.847Z,20.80
2023-10-24T10:55:54.904Z,14.07
2023-10-24T10:58:25.096Z,15.53
2023-10-24T11:01:04.957Z,13.20
2023-10-24T11:03:46.865Z,17.03
2023-10-24T11:06:16.215Z,16.73
2023-10-24T11:08:52.025Z,14.57
2023-10-24T11:11:22.535Z,12.23
2023-10-24T11:13:52.545Z,13.07
2023-10-24T11:16:34.764Z,15.57
2023-10-24T11:18:51.425Z,12.70
2023-10-24T11:21:19.965Z,11.07
2023-10-24T11:23:48.389Z,15.97
2023-10-24T11:26:16.807Z,14.53
2023-10-24T11:28:46.164Z,14.63
2023-10-24T11:31:21.672Z,11.53
2023-10-24T11:33:50.212Z,9.67
2023-10-24T11:36:18.791Z,13.30
2023-10-24T11:38:47.889Z,14.37
2023-10-24T11:41:15.980Z,12.67
2023-10-24T11:43:46.723Z,13.83
2023-10-24T11:46:15.320Z,12.57
2023-10-24T11:48:43.680Z,15.00
2023-10-24T11:51:13.819Z,11.87
2023-10-24T11:53:42.478Z,15.17
2023-10-24T11:56:11.358Z,12.37
2023-10-24T11:58:41.941Z,15.03
2023-10-24T12:01:10.717Z,13.10
2023-10-24T12:03:45.213Z,16.27
2023-10-24T12:06:14.099Z,9.60
2023-10-24T12:08:44.932Z,13.00
2023-10-24T12:11:12.857Z,10.50
2023-10-24T12:13:41.634Z,16.70
2023-10-24T12:18:40.422Z,17.25
2023-10-24T12:21:10.876Z,10.97
2023-10-24T12:23:39.783Z,17.03
2023-10-24T12:28:36.322Z,10.95
2023-10-24T12:36:01.039Z,12.00
2023-10-24T12:38:29.542Z,10.90
2023-10-24T12:40:58.443Z,13.63
2023-10-24T12:45:54.612Z,15.35
2023-10-24T12:48:23.292Z,12.87
2023-10-24T12:50:51.895Z,12.50
2023-10-24T12:53:21.800Z,9.80
2023-10-24T12:55:50.684Z,10.23
2023-10-24T12:58:18.976Z,10.07
2023-10-24T13:00:47.568Z,10.37
2023-10-24T13:03:18.259Z,8.53
2023-10-24T13:05:47.420Z,10.40
2023-10-24T13:08:15.870Z,10.73
2023-10-24T13:10:45.372Z,11.07
2023-10-24T13:13:13.750Z,7.33
2023-10-24T13:15:41.782Z,13.17
2023-10-24T13:18:10.715Z,12.40
2023-10-24T13:20:40.243Z,19.73
2023-10-24T13:23:08.862Z,10.30
2023-10-24T13:25:37.859Z,9.10
2023-10-24T13:28:06.591Z,13.70
2023-10-24T13:30:44.664Z,11.37
2023-10-24T13:33:05.528Z,10.23
2023-10-24T13:38:06.947Z,14.87
2023-10-24T13:40:35.559Z,10.07
2023-10-24T13:43:04.576Z,12.73
2023-10-24T13:45:33.263Z,15.90
2023-10-24T13:48:01.635Z,14.10
2023-10-24T13:50:29.729Z,15.43
2023-10-24T13:52:59.111Z,11.93
2023-10-24T13:55:28.305Z,14.77
2023-10-24T13:57:56.853Z,13.57
2023-10-24T14:00:25.670Z,11.40
2023-10-24T14:02:53.578Z,11.03
2023-10-24T14:05:22.329Z,18.67
2023-10-24T14:07:50.842Z,14.63
2023-10-24T14:10:19.595Z,11.90
2023-10-24T14:12:48.266Z,14.23
2023-10-24T14:15:16.447Z,11.47
2023-10-24T14:17:44.975Z,19.87
2023-10-24T14:20:13.721Z,14.20
2023-10-24T14:22:42.461Z,14.03
2023-10-24T14:25:10.874Z,11.20
2023-10-24T14:27:39.231Z,14.80
2023-10-24T14:30:08.476Z,11.83
2023-10-24T14:32:37.249Z,10.43
2023-10-24T14:35:06.078Z,16.27
2023-10-24T14:37:34.733Z,14.60
2023-10-24T14:40:03.400Z,13.33
2023-10-24T14:42:32.172Z,13.70
2023-10-24T14:45:00.786Z,13.40
2023-10-24T14:47:29.767Z,16.23
2023-10-24T14:54:53.107Z,15.48
2023-10-24T14:57:21.665Z,14.07
2023-10-24T14:59:49.548Z,14.53
2023-10-24T15:02:18.136Z,16.20
2023-10-24T15:04:47.027Z,13.30
2023-10-24T15:07:15.186Z,11.43
2023-10-24T15:09:43.704Z,14.07
2023-10-24T15:12:12.235Z,12.50
2023-10-24T15:14:41.230Z,14.03
2023-10-24T15:19:36.580Z,17.30
2023-10-24T15:22:05.854Z,25.53
2023-10-24T15:24:37.108Z,15.30
2023-10-24T15:27:04.332Z,23.40
2023-10-24T15:29:34.447Z,14.50
2023-10-24T15:32:03.527Z,15.70
2023-10-24T15:34:33.590Z,26.30
2023-10-24T15:37:03.386Z,20.30
2023-10-24T15:39:31.801Z,19.93
2023-10-24T15:42:00.743Z,15.50
2023-10-24T15:46:56.057Z,21.02
2023-10-24T15:49:24.369Z,21.83
2023-10-24T15:51:52.743Z,24.00
2023-10-24T15:54:21.447Z,29.20
2023-10-24T15:56:49.904Z,23.73
2023-10-24T15:59:18.395Z,20.00
2023-10-24T16:01:48.124Z,26.70
2023-10-24T16:04:16.621Z,23.53
2023-10-24T16:06:45.908Z,24.50
2023-10-24T16:11:41.341Z,20.57
2023-10-24T16:14:11.398Z,25.50
2023-10-24T16:16:40.538Z,24.07
2023-10-24T16:21:37.208Z,27.22
2023-10-24T16:24:06.106Z,27.47
2023-10-24T16:26:34.579Z,28.50
2023-10-24T16:29:03.319Z,31.37
2023-10-24T16:31:32.181Z,27.60
2023-10-24T16:34:01.021Z,26.00
2023-10-24T16:36:29.842Z,24.30
2023-10-24T16:38:58.201Z,24.30
2023-10-24T16:41:26.394Z,21.87
2023-10-24T16:43:54.908Z,29.03
2023-10-24T16:46:23.849Z,25.97
2023-10-24T16:48:53.479Z,34.73
2023-10-24T16:51:22.268Z,47.20
2023-10-24T16:53:51.674Z,56.27
2023-10-24T16:56:20.302Z,52.37
2023-10-24T16:58:49.100Z,48.07
2023-10-24T17:01:17.470Z,45.20
2023-10-24T17:03:46.519Z,36.77
2023-10-24T17:06:15.497Z,37.40
2023-10-24T17:08:43.761Z,49.47
2023-10-24T17:11:12.523Z,46.63
2023-10-24T17:13:41.296Z,41.17
2023-10-24T17:16:09.669Z,37.37
2023-10-24T17:18:38.934Z,30.93
2023-10-24T17:21:07.765Z,29.43
2023-10-24T17:23:36.417Z,33.73
2023-10-24T17:26:05.138Z,31.20
2023-10-24T17:28:34.325Z,43.83
2023-10-24T17:31:03.089Z,39.30
2023-10-24T17:33:33.322Z,36.97
2023-10-24T17:36:04.134Z,34.60
2023-10-24T17:38:32.445Z,40.83
2023-10-24T17:41:03.147Z,34.13
2023-10-24T17:43:31.989Z,36.27
2023-10-24T17:46:01.699Z,35.77
2023-10-24T17:48:30.337Z,44.90
2023-10-24T17:50:58.812Z,37.27
2023-10-24T17:53:27.638Z,35.33
2023-10-24T17:55:56.331Z,36.83
2023-10-24T17:58:24.874Z,32.50
2023-10-24T18:00:53.585Z,29.77
2023-10-24T18:03:22.106Z,38.53
2023-10-24T18:05:51.039Z,30.97
2023-10-24T18:08:19.062Z,29.97
2023-10-24T18:10:47.346Z,30.13
2023-10-24T18:13:15.764Z,28.80
2023-10-24T18:15:44.588Z,27.30
2023-10-24T18:18:14.366Z,20.00
2023-10-24T18:20:42.872Z,18.50
2023-10-24T18:23:12.972Z,19.70
2023-10-24T18:25:43.512Z,22.83
2023-10-24T18:28:12.209Z,21.47
2023-10-24T18:30:40.991Z,22.77
2023-10-24T18:33:09.594Z,29.53
2023-10-24T18:35:41.235Z,34.30
2023-10-24T18:38:09.959Z,40.43
2023-10-24T18:40:38.967Z,45.27
2023-10-24T18:43:08.596Z,38.93
2023-10-24T18:45:37.625Z,39.63
2023-10-24T18:48:06.519Z,38.20
2023-10-24T18:50:35.632Z,34.30
2023-10-24T18:53:03.949Z,31.50
2023-10-24T18:55:32.637Z,37.23
2023-10-24T18:58:01.185Z,31.87
2023-10-24T19:00:29.989Z,26.33
2023-10-24T19:02:58.608Z,20.13
2023-10-24T19:05:28.064Z,20.57
2023-10-24T19:07:57.839Z,21.73
2023-10-24T19:10:26.620Z,25.93
2023-10-24T19:12:55.342Z,23.83
2023-10-24T19:15:24.450Z,23.57
2023-10-24T19:17:53.322Z,24.90
2023-10-24T19:20:22.091Z,20.80
2023-10-24T19:22:50.575Z,27.00
2023-10-24T19:25:19.462Z,19.27
2023-10-24T19:27:47.899Z,21.87
2023-10-24T19:30:16.590Z,18.60
2023-10-24T19:32:45.178Z,28.63
2023-10-24T19:35:15.090Z,31.33
2023-10-24T19:37:45.485Z,45.50
2023-10-24T19:40:14.469Z,36.30
2023-10-24T19:42:43.159Z,52.60
2023-10-24T19:45:12.788Z,48.63
2023-10-24T19:47:42.000Z,41.90
2023-10-24T19:50:10.743Z,42.27
2023-10-24T19:52:39.054Z,40.57
2023-10-24T19:55:15.901Z,35.97
2023-10-24T19:57:37.907Z,33.97
2023-10-24T20:00:06.750Z,26.97
2023-10-24T20:02:35.643Z,21.63
2023-10-24T20:05:04.616Z,23.43
2023-10-24T20:07:34.913Z,25.50
2023-10-24T20:12:30.827Z,26.27
2023-10-24T20:12:42.921Z,26.20
2023-10-24T20:15:06.580Z,24.70
2023-10-24T20:17:38.908Z,29.83
2023-10-24T20:20:08.176Z,30.70
2023-10-24T20:25:03.928Z,29.42
2023-10-24T20:27:34.386Z,33.80
2023-10-24T20:30:07.376Z,27.40
2023-10-24T20:32:36.563Z,30.43
2023-10-24T20:35:05.818Z,22.70
2023-10-24T20:37:34.411Z,23.93
2023-10-24T20:40:04.891Z,24.23
2023-10-24T20:42:33.661Z,26.37
2023-10-24T20:45:02.196Z,23.00
2023-10-24T20:47:31.168Z,41.10
2023-10-24T20:49:59.986Z,28.77
2023-10-24T20:52:28.973Z,29.57
2023-10-24T20:54:59.098Z,28.37
2023-10-24T20:57:27.693Z,25.87
2023-10-24T20:59:56.354Z,26.77
2023-10-24T21:02:25.045Z,24.73
2023-10-24T21:04:54.085Z,25.50
2023-10-24T21:07:24.175Z,25.00
2023-10-24T21:09:52.573Z,29.07
2023-10-24T21:12:21.378Z,29.87
2023-10-24T21:14:50.320Z,24.50
2023-10-24T21:17:18.358Z,27.27
2023-10-24T21:19:47.383Z,28.40
2023-10-24T21:22:16.482Z,28.47
2023-10-24T21:24:45.071Z,28.33
2023-10-24T21:27:14.762Z,26.00
2023-10-24T21:29:43.036Z,24.50
2023-10-24T21:32:11.932Z,25.00
2023-10-24T21:34:41.135Z,38.63
2023-10-24T21:37:11.758Z,27.23
2023-10-24T21:39:40.068Z,22.03
2023-10-24T21:42:08.996Z,23.37
2023-10-24T21:44:43.440Z,27.90
2023-10-24T21:47:08.071Z,24.63
2023-10-24T21:49:37.470Z,32.73
2023-10-24T21:52:05.877Z,28.50
2023-10-24T21:54:34.358Z,23.10
2023-10-24T21:57:03.232Z,25.23
2023-10-24T21:59:31.816Z,28.30
2023-10-24T22:02:00.555Z,25.37
2023-10-24T22:04:29.224Z,25.53
2023-10-24T22:06:58.122Z,25.40
2023-10-24T22:09:26.886Z,27.50
2023-10-24T22:11:55.566Z,30.63
2023-10-24T22:14:24.142Z,24.20
2023-10-24T22:16:52.644Z,26.30
2023-10-24T22:19:21.302Z,29.53
2023-10-24T22:21:50.558Z,30.30
2023-10-24T22:26:46.749Z,34.08
2023-10-24T22:29:15.645Z,24.30
2023-10-24T22:31:44.347Z,27.97
2023-10-24T22:34:13.785Z,24.93
2023-10-24T22:36:42.140Z,24.20
2023-10-24T22:39:11.121Z,26.73
2023-10-24T22:41:40.411Z,23.50
2023-10-24T22:44:09.108Z,27.80
2023-10-24T22:46:37.764Z,28.00
2023-10-24T22:49:07.332Z,25.83
2023-10-24T22:51:35.825Z,25.13
2023-10-24T22:54:05.168Z,32.10
2023-10-24T22:56:33.834Z,27.17
2023-10-24T22:59:02.316Z,45.83
2023-10-24T23:01:31.310Z,26.30
2023-10-24T23:03:59.931Z,29.17
2023-10-24T23:06:28.988Z,30.90
2023-10-24T23:08:57.796Z,26.80
2023-10-24T23:11:26.287Z,28.80
2023-10-24T23:13:54.685Z,28.23
2023-10-24T23:16:23.415Z,22.33
2023-10-24T23:18:52.464Z,25.23
2023-10-24T23:21:21.128Z,25.67
2023-10-24T23:23:49.516Z,32.27
2023-10-24T23:26:17.988Z,32.63
2023-10-24T23:28:46.159Z,30.70
2023-10-24T23:31:15.021Z,28.07
2023-10-24T23:33:45.175Z,29.80
2023-10-24T23:36:13.441Z,29.77
2023-10-24T23:38:42.222Z,25.90
2023-10-24T23:41:10.811Z,26.83
2023-10-24T23:43:39.394Z,26.20
2023-10-24T23:46:08.285Z,27.83
2023-10-24T23:48:37.004Z,26.60
2023-10-24T23:51:05.657Z,20.00
2023-10-24T23:53:34.247Z,27.13
2023-10-24T23:56:02.926Z,30.73
2023-10-24T23:58:31.593Z,25.47
